Alfred, North Dakota
Current Conditions -  °F | °C
As of 3:56 PM on Tuesday 25 Nov 2014 (Local Time) from KJMS Reporting Station
Light Snow Light Snow  
Wind Chill: 19°   Ceiling: 1900
Heat Index: 29°   Visibility: 0.75mi
Dew Point: 25°   Wind: 13mph
Humidity: 85%   Direction: 130°SE
Pressure: 29.79"   Gusts: NA
Location:  46.4882°N, 98.8135°W
Report Text: KJMS 252156Z AUTO 13011KT 3/4SM -SN BR VV019 M02/M04 A2979 RMK AO2 SNB05 SLP110 P0000 T10171039
Loading
Personal Weather Stations






























Interactive Weather Map New forecast layout! Learn more

10-Day Weather Forecast

Advertisements
Track Severe Weather on mobile